sensor_id;sensor_type;location;lat;lon;timestamp;P1;durP1;ratioP1;P2;durP2;ratioP2
15931;SDS011;8065;49.520;11.284;2024-03-06T00:01:52;24.07;;;17.17;;
15931;SDS011;8065;49.520;11.284;2024-03-06T00:04:21;25.40;;;18.07;;
15931;SDS011;8065;49.520;11.284;2024-03-06T00:06:51;25.87;;;18.13;;
15931;SDS011;8065;49.520;11.284;2024-03-06T00:09:20;26.00;;;17.80;;
15931;SDS011;8065;49.520;11.284;2024-03-06T00:11:48;26.60;;;18.27;;
15931;SDS011;8065;49.520;11.284;2024-03-06T00:14:18;22.67;;;16.53;;
15931;SDS011;8065;49.520;11.284;2024-03-06T00:16:46;25.67;;;18.17;;
15931;SDS011;8065;49.520;11.284;2024-03-06T00:19:15;24.30;;;17.60;;
15931;SDS011;8065;49.520;11.284;2024-03-06T00:21:43;26.07;;;18.37;;
15931;SDS011;8065;49.520;11.284;2024-03-06T00:24:14;27.20;;;18.17;;
15931;SDS011;8065;49.520;11.284;2024-03-06T00:26:44;22.97;;;16.23;;
15931;SDS011;8065;49.520;11.284;2024-03-06T00:29:13;24.53;;;17.77;;
15931;SDS011;8065;49.520;11.284;2024-03-06T00:31:42;28.37;;;18.57;;
15931;SDS011;8065;49.520;11.284;2024-03-06T00:34:11;23.67;;;17.33;;
15931;SDS011;8065;49.520;11.284;2024-03-06T00:36:40;26.90;;;18.63;;
15931;SDS011;8065;49.520;11.284;2024-03-06T00:39:08;25.43;;;17.50;;
15931;SDS011;8065;49.520;11.284;2024-03-06T00:41:42;25.57;;;18.23;;
15931;SDS011;8065;49.520;11.284;2024-03-06T00:44:10;27.07;;;17.97;;
15931;SDS011;8065;49.520;11.284;2024-03-06T00:46:38;24.97;;;17.37;;
15931;SDS011;8065;49.520;11.284;2024-03-06T00:49:07;24.33;;;16.53;;
15931;SDS011;8065;49.520;11.284;2024-03-06T00:51:35;24.40;;;16.40;;
15931;SDS011;8065;49.520;11.284;2024-03-06T00:54:04;25.77;;;16.67;;
15931;SDS011;8065;49.520;11.284;2024-03-06T00:56:32;24.13;;;16.53;;
15931;SDS011;8065;49.520;11.284;2024-03-06T00:59:03;25.33;;;17.03;;
15931;SDS011;8065;49.520;11.284;2024-03-06T01:01:31;24.53;;;17.10;;
15931;SDS011;8065;49.520;11.284;2024-03-06T01:03:59;25.33;;;16.67;;
15931;SDS011;8065;49.520;11.284;2024-03-06T01:06:28;26.23;;;17.13;;
15931;SDS011;8065;49.520;11.284;2024-03-06T01:08:56;23.57;;;16.33;;
15931;SDS011;8065;49.520;11.284;2024-03-06T01:11:25;23.33;;;16.47;;
15931;SDS011;8065;49.520;11.284;2024-03-06T01:13:53;25.23;;;16.87;;
15931;SDS011;8065;49.520;11.284;2024-03-06T01:16:24;24.27;;;17.30;;
15931;SDS011;8065;49.520;11.284;2024-03-06T01:18:52;23.37;;;16.97;;
15931;SDS011;8065;49.520;11.284;2024-03-06T01:21:21;24.10;;;18.03;;
15931;SDS011;8065;49.520;11.284;2024-03-06T01:23:49;23.37;;;17.03;;
15931;SDS011;8065;49.520;11.284;2024-03-06T01:26:17;23.23;;;16.63;;
15931;SDS011;8065;49.520;11.284;2024-03-06T01:28:46;23.77;;;16.83;;
15931;SDS011;8065;49.520;11.284;2024-03-06T01:31:14;24.30;;;16.83;;
15931;SDS011;8065;49.520;11.284;2024-03-06T01:33:45;23.97;;;17.30;;
15931;SDS011;8065;49.520;11.284;2024-03-06T01:36:13;24.33;;;17.77;;
15931;SDS011;8065;49.520;11.284;2024-03-06T01:38:41;25.10;;;17.50;;
15931;SDS011;8065;49.520;11.284;2024-03-06T01:41:11;27.33;;;18.30;;
15931;SDS011;8065;49.520;11.284;2024-03-06T01:43:39;27.43;;;18.37;;
15931;SDS011;8065;49.520;11.284;2024-03-06T01:46:07;25.50;;;18.17;;
15931;SDS011;8065;49.520;11.284;2024-03-06T01:48:36;26.93;;;18.60;;
15931;SDS011;8065;49.520;11.284;2024-03-06T01:51:06;27.33;;;18.73;;
15931;SDS011;8065;49.520;11.284;2024-03-06T01:53:35;29.93;;;20.00;;
15931;SDS011;8065;49.520;11.284;2024-03-06T01:56:04;29.03;;;19.87;;
15931;SDS011;8065;49.520;11.284;2024-03-06T01:58:36;32.07;;;20.70;;
15931;SDS011;8065;49.520;11.284;2024-03-06T02:01:06;28.83;;;20.33;;
15931;SDS011;8065;49.520;11.284;2024-03-06T02:03:35;30.47;;;19.70;;
15931;SDS011;8065;49.520;11.284;2024-03-06T02:06:03;30.93;;;20.10;;
15931;SDS011;8065;49.520;11.284;2024-03-06T02:08:36;29.30;;;20.63;;
15931;SDS011;8065;49.520;11.284;2024-03-06T02:11:04;28.63;;;19.77;;
15931;SDS011;8065;49.520;11.284;2024-03-06T02:13:33;28.83;;;19.63;;
15931;SDS011;8065;49.520;11.284;2024-03-06T02:16:01;32.80;;;21.00;;
15931;SDS011;8065;49.520;11.284;2024-03-06T02:18:30;29.20;;;19.63;;
15931;SDS011;8065;49.520;11.284;2024-03-06T02:21:01;28.33;;;19.27;;
15931;SDS011;8065;49.520;11.284;2024-03-06T02:23:29;32.13;;;20.50;;
15931;SDS011;8065;49.520;11.284;2024-03-06T02:25:58;28.13;;;20.37;;
15931;SDS011;8065;49.520;11.284;2024-03-06T02:28:27;30.43;;;21.13;;
15931;SDS011;8065;49.520;11.284;2024-03-06T02:30:55;33.33;;;20.20;;
15931;SDS011;8065;49.520;11.284;2024-03-06T02:33:24;30.30;;;20.87;;
15931;SDS011;8065;49.520;11.284;2024-03-06T02:35:52;31.80;;;21.47;;
15931;SDS011;8065;49.520;11.284;2024-03-06T02:38:23;28.80;;;20.67;;
15931;SDS011;8065;49.520;11.284;2024-03-06T02:40:51;30.63;;;21.30;;
15931;SDS011;8065;49.520;11.284;2024-03-06T02:43:19;33.40;;;22.27;;
15931;SDS011;8065;49.520;11.284;2024-03-06T02:45:48;30.77;;;21.00;;
15931;SDS011;8065;49.520;11.284;2024-03-06T02:48:16;30.40;;;20.93;;
15931;SDS011;8065;49.520;11.284;2024-03-06T02:50:44;31.93;;;20.57;;
15931;SDS011;8065;49.520;11.284;2024-03-06T02:53:13;30.03;;;20.63;;
15931;SDS011;8065;49.520;11.284;2024-03-06T02:55:44;33.00;;;20.90;;
15931;SDS011;8065;49.520;11.284;2024-03-06T02:58:13;29.90;;;20.27;;
15931;SDS011;8065;49.520;11.284;2024-03-06T03:00:41;30.23;;;20.53;;
15931;SDS011;8065;49.520;11.284;2024-03-06T03:03:10;31.57;;;20.27;;
15931;SDS011;8065;49.520;11.284;2024-03-06T03:05:39;33.50;;;21.37;;
15931;SDS011;8065;49.520;11.284;2024-03-06T03:08:08;36.23;;;22.33;;
15931;SDS011;8065;49.520;11.284;2024-03-06T03:10:36;33.80;;;21.40;;
15931;SDS011;8065;49.520;11.284;2024-03-06T03:13:07;33.07;;;21.90;;
15931;SDS011;8065;49.520;11.284;2024-03-06T03:15:36;35.10;;;22.53;;
15931;SDS011;8065;49.520;11.284;2024-03-06T03:18:05;31.87;;;21.53;;
15931;SDS011;8065;49.520;11.284;2024-03-06T03:20:34;34.07;;;21.50;;
15931;SDS011;8065;49.520;11.284;2024-03-06T03:23:02;32.30;;;21.97;;
15931;SDS011;8065;49.520;11.284;2024-03-06T03:25:31;30.57;;;20.60;;
15931;SDS011;8065;49.520;11.284;2024-03-06T03:28:01;31.47;;;21.07;;
15931;SDS011;8065;49.520;11.284;2024-03-06T03:30:32;34.37;;;21.33;;
15931;SDS011;8065;49.520;11.284;2024-03-06T03:33:00;34.07;;;22.13;;
15931;SDS011;8065;49.520;11.284;2024-03-06T03:35:28;32.80;;;21.43;;
15931;SDS011;8065;49.520;11.284;2024-03-06T03:37:57;36.43;;;22.33;;
15931;SDS011;8065;49.520;11.284;2024-03-06T03:40:25;32.77;;;21.50;;
15931;SDS011;8065;49.520;11.284;2024-03-06T03:42:53;35.10;;;22.60;;
15931;SDS011;8065;49.520;11.284;2024-03-06T03:45:22;36.40;;;23.43;;
15931;SDS011;8065;49.520;11.284;2024-03-06T03:47:52;38.50;;;23.20;;
15931;SDS011;8065;49.520;11.284;2024-03-06T03:50:21;36.30;;;22.03;;
15931;SDS011;8065;49.520;11.284;2024-03-06T03:52:49;42.67;;;23.93;;
15931;SDS011;8065;49.520;11.284;2024-03-06T03:55:17;41.50;;;24.30;;
15931;SDS011;8065;49.520;11.284;2024-03-06T03:57:46;39.93;;;24.87;;
15931;SDS011;8065;49.520;11.284;2024-03-06T04:00:14;39.13;;;23.57;;
15931;SDS011;8065;49.520;11.284;2024-03-06T04:02:43;38.93;;;23.63;;
15931;SDS011;8065;49.520;11.284;2024-03-06T04:05:14;37.20;;;23.30;;
15931;SDS011;8065;49.520;11.284;2024-03-06T04:07:42;36.07;;;22.80;;
15931;SDS011;8065;49.520;11.284;2024-03-06T04:10:10;32.10;;;21.37;;
15931;SDS011;8065;49.520;11.284;2024-03-06T04:12:39;38.63;;;24.23;;
15931;SDS011;8065;49.520;11.284;2024-03-06T04:15:07;34.27;;;22.50;;
15931;SDS011;8065;49.520;11.284;2024-03-06T04:17:36;38.63;;;23.43;;
15931;SDS011;8065;49.520;11.284;2024-03-06T04:20:06;40.43;;;24.13;;
15931;SDS011;8065;49.520;11.284;2024-03-06T04:22:39;39.57;;;23.33;;
15931;SDS011;8065;49.520;11.284;2024-03-06T04:25:08;35.73;;;22.50;;
15931;SDS011;8065;49.520;11.284;2024-03-06T04:27:36;38.57;;;23.13;;
15931;SDS011;8065;49.520;11.284;2024-03-06T04:30:05;37.73;;;23.40;;
15931;SDS011;8065;49.520;11.284;2024-03-06T04:32:34;38.93;;;23.83;;
15931;SDS011;8065;49.520;11.284;2024-03-06T04:35:03;35.93;;;23.20;;
15931;SDS011;8065;49.520;11.284;2024-03-06T04:37:32;38.73;;;23.73;;
15931;SDS011;8065;49.520;11.284;2024-03-06T04:40:03;37.80;;;22.73;;
15931;SDS011;8065;49.520;11.284;2024-03-06T04:42:33;38.70;;;22.57;;
15931;SDS011;8065;49.520;11.284;2024-03-06T04:45:01;37.23;;;21.73;;
15931;SDS011;8065;49.520;11.284;2024-03-06T04:47:30;38.43;;;23.10;;
15931;SDS011;8065;49.520;11.284;2024-03-06T04:49:59;40.07;;;24.50;;
15931;SDS011;8065;49.520;11.284;2024-03-06T04:52:27;39.50;;;24.27;;
15931;SDS011;8065;49.520;11.284;2024-03-06T04:54:55;43.80;;;23.23;;
15931;SDS011;8065;49.520;11.284;2024-03-06T04:57:26;38.37;;;22.13;;
15931;SDS011;8065;49.520;11.284;2024-03-06T04:59:55;36.57;;;21.13;;
15931;SDS011;8065;49.520;11.284;2024-03-06T05:02:23;33.90;;;21.23;;
15931;SDS011;8065;49.520;11.284;2024-03-06T05:04:52;35.70;;;21.10;;
15931;SDS011;8065;49.520;11.284;2024-03-06T05:07:21;30.53;;;20.10;;
15931;SDS011;8065;49.520;11.284;2024-03-06T05:09:49;31.00;;;20.87;;
15931;SDS011;8065;49.520;11.284;2024-03-06T05:12:17;35.10;;;21.13;;
15931;SDS011;8065;49.520;11.284;2024-03-06T05:14:48;33.43;;;21.47;;
15931;SDS011;8065;49.520;11.284;2024-03-06T05:17:16;33.60;;;21.07;;
15931;SDS011;8065;49.520;11.284;2024-03-06T05:19:45;32.03;;;20.27;;
15931;SDS011;8065;49.520;11.284;2024-03-06T05:22:14;32.70;;;20.50;;
15931;SDS011;8065;49.520;11.284;2024-03-06T05:24:43;38.40;;;21.80;;
15931;SDS011;8065;49.520;11.284;2024-03-06T05:27:11;35.40;;;21.37;;
15931;SDS011;8065;49.520;11.284;2024-03-06T05:29:42;35.80;;;21.93;;
15931;SDS011;8065;49.520;11.284;2024-03-06T05:32:13;38.97;;;23.67;;
15931;SDS011;8065;49.520;11.284;2024-03-06T05:34:41;37.87;;;21.10;;
15931;SDS011;8065;49.520;11.284;2024-03-06T05:37:09;36.37;;;21.43;;
15931;SDS011;8065;49.520;11.284;2024-03-06T05:39:38;36.60;;;21.27;;
15931;SDS011;8065;49.520;11.284;2024-03-06T05:42:07;37.70;;;21.23;;
15931;SDS011;8065;49.520;11.284;2024-03-06T05:44:36;35.57;;;20.87;;
15931;SDS011;8065;49.520;11.284;2024-03-06T05:47:04;36.27;;;20.13;;
15931;SDS011;8065;49.520;11.284;2024-03-06T05:49:36;36.00;;;20.53;;
15931;SDS011;8065;49.520;11.284;2024-03-06T05:52:04;39.97;;;22.33;;
15931;SDS011;8065;49.520;11.284;2024-03-06T05:54:32;36.70;;;21.23;;
15931;SDS011;8065;49.520;11.284;2024-03-06T05:57:02;36.23;;;21.10;;
15931;SDS011;8065;49.520;11.284;2024-03-06T05:59:30;33.93;;;19.47;;
15931;SDS011;8065;49.520;11.284;2024-03-06T06:01:59;34.27;;;19.80;;
15931;SDS011;8065;49.520;11.284;2024-03-06T06:04:29;35.57;;;20.63;;
15931;SDS011;8065;49.520;11.284;2024-03-06T06:07:00;33.33;;;19.57;;
15931;SDS011;8065;49.520;11.284;2024-03-06T06:09:28;34.47;;;20.43;;
15931;SDS011;8065;49.520;11.284;2024-03-06T06:11:58;33.40;;;20.53;;
15931;SDS011;8065;49.520;11.284;2024-03-06T06:14:27;32.30;;;19.30;;
15931;SDS011;8065;49.520;11.284;2024-03-06T06:16:56;30.50;;;18.47;;
15931;SDS011;8065;49.520;11.284;2024-03-06T06:19:24;33.50;;;19.70;;
15931;SDS011;8065;49.520;11.284;2024-03-06T06:21:53;28.73;;;17.43;;
15931;SDS011;8065;49.520;11.284;2024-03-06T06:24:25;29.47;;;18.00;;
15931;SDS011;8065;49.520;11.284;2024-03-06T06:26:53;26.43;;;17.60;;
15931;SDS011;8065;49.520;11.284;2024-03-06T06:29:22;31.23;;;17.73;;
15931;SDS011;8065;49.520;11.284;2024-03-06T06:31:50;30.50;;;17.87;;
15931;SDS011;8065;49.520;11.284;2024-03-06T06:34:19;30.37;;;16.87;;
15931;SDS011;8065;49.520;11.284;2024-03-06T06:36:47;28.47;;;16.27;;
15931;SDS011;8065;49.520;11.284;2024-03-06T06:39:16;29.80;;;17.53;;
15931;SDS011;8065;49.520;11.284;2024-03-06T06:41:47;27.60;;;16.87;;
15931;SDS011;8065;49.520;11.284;2024-03-06T06:44:16;28.17;;;17.00;;
15931;SDS011;8065;49.520;11.284;2024-03-06T06:46:44;28.20;;;16.10;;
15931;SDS011;8065;49.520;11.284;2024-03-06T06:49:12;31.27;;;17.27;;
15931;SDS011;8065;49.520;11.284;2024-03-06T06:51:41;26.70;;;16.53;;
15931;SDS011;8065;49.520;11.284;2024-03-06T06:54:09;27.60;;;17.30;;
15931;SDS011;8065;49.520;11.284;2024-03-06T06:56:37;26.47;;;16.27;;
15931;SDS011;8065;49.520;11.284;2024-03-06T06:59:08;30.27;;;17.03;;
15931;SDS011;8065;49.520;11.284;2024-03-06T07:01:38;29.90;;;16.80;;
15931;SDS011;8065;49.520;11.284;2024-03-06T07:04:06;27.57;;;17.27;;
15931;SDS011;8065;49.520;11.284;2024-03-06T07:06:35;26.93;;;16.47;;
15931;SDS011;8065;49.520;11.284;2024-03-06T07:09:03;28.23;;;17.77;;
15931;SDS011;8065;49.520;11.284;2024-03-06T07:11:34;26.63;;;16.63;;
15931;SDS011;8065;49.520;11.284;2024-03-06T07:14:02;28.37;;;17.70;;
15931;SDS011;8065;49.520;11.284;2024-03-06T07:16:33;26.50;;;17.00;;
15931;SDS011;8065;49.520;11.284;2024-03-06T07:19:02;29.67;;;17.60;;
15931;SDS011;8065;49.520;11.284;2024-03-06T07:21:30;29.23;;;17.60;;
15931;SDS011;8065;49.520;11.284;2024-03-06T07:23:58;28.80;;;18.10;;
15931;SDS011;8065;49.520;11.284;2024-03-06T07:26:27;28.83;;;17.27;;
15931;SDS011;8065;49.520;11.284;2024-03-06T07:28:55;30.47;;;17.13;;
15931;SDS011;8065;49.520;11.284;2024-03-06T07:31:24;29.23;;;17.27;;
15931;SDS011;8065;49.520;11.284;2024-03-06T07:33:55;26.30;;;16.37;;
15931;SDS011;8065;49.520;11.284;2024-03-06T07:36:23;28.47;;;17.40;;
15931;SDS011;8065;49.520;11.284;2024-03-06T07:38:51;28.00;;;16.67;;
15931;SDS011;8065;49.520;11.284;2024-03-06T07:41:20;26.20;;;16.50;;
15931;SDS011;8065;49.520;11.284;2024-03-06T07:43:48;25.93;;;15.90;;
15931;SDS011;8065;49.520;11.284;2024-03-06T07:46:16;27.73;;;16.93;;
15931;SDS011;8065;49.520;11.284;2024-03-06T07:48:45;28.93;;;17.77;;
15931;SDS011;8065;49.520;11.284;2024-03-06T07:51:17;26.17;;;16.80;;
15931;SDS011;8065;49.520;11.284;2024-03-06T07:53:45;24.53;;;15.60;;
15931;SDS011;8065;49.520;11.284;2024-03-06T07:56:15;26.13;;;16.97;;
15931;SDS011;8065;49.520;11.284;2024-03-06T07:58:43;27.77;;;16.50;;
15931;SDS011;8065;49.520;11.284;2024-03-06T08:01:11;27.00;;;17.43;;
15931;SDS011;8065;49.520;11.284;2024-03-06T08:03:40;26.73;;;16.70;;
15931;SDS011;8065;49.520;11.284;2024-03-06T08:06:09;26.47;;;16.57;;
15931;SDS011;8065;49.520;11.284;2024-03-06T08:08:43;27.73;;;16.53;;
15931;SDS011;8065;49.520;11.284;2024-03-06T08:11:12;28.60;;;17.17;;
15931;SDS011;8065;49.520;11.284;2024-03-06T08:13:40;28.83;;;17.80;;
15931;SDS011;8065;49.520;11.284;2024-03-06T08:16:09;26.30;;;16.90;;
15931;SDS011;8065;49.520;11.284;2024-03-06T08:18:37;28.20;;;17.57;;
15931;SDS011;8065;49.520;11.284;2024-03-06T08:21:05;27.93;;;17.40;;
15931;SDS011;8065;49.520;11.284;2024-03-06T08:23:34;24.93;;;16.60;;
15931;SDS011;8065;49.520;11.284;2024-03-06T08:26:05;28.67;;;17.10;;
15931;SDS011;8065;49.520;11.284;2024-03-06T08:28:33;25.93;;;16.60;;
15931;SDS011;8065;49.520;11.284;2024-03-06T08:31:01;26.00;;;17.20;;
15931;SDS011;8065;49.520;11.284;2024-03-06T08:33:30;27.57;;;17.10;;
15931;SDS011;8065;49.520;11.284;2024-03-06T08:35:58;24.50;;;16.50;;
15931;SDS011;8065;49.520;11.284;2024-03-06T08:38:27;28.83;;;17.43;;
15931;SDS011;8065;49.520;11.284;2024-03-06T08:40:55;27.30;;;17.17;;
15931;SDS011;8065;49.520;11.284;2024-03-06T08:43:26;24.97;;;16.60;;
15931;SDS011;8065;49.520;11.284;2024-03-06T08:45:55;26.33;;;16.50;;
15931;SDS011;8065;49.520;11.284;2024-03-06T08:48:23;25.37;;;16.27;;
15931;SDS011;8065;49.520;11.284;2024-03-06T08:50:51;26.70;;;17.20;;
15931;SDS011;8065;49.520;11.284;2024-03-06T08:53:19;28.27;;;17.17;;
15931;SDS011;8065;49.520;11.284;2024-03-06T08:55:48;27.97;;;17.73;;
15931;SDS011;8065;49.520;11.284;2024-03-06T08:58:17;30.43;;;18.27;;
15931;SDS011;8065;49.520;11.284;2024-03-06T09:00:48;27.37;;;17.13;;
15931;SDS011;8065;49.520;11.284;2024-03-06T09:03:16;29.87;;;17.90;;
15931;SDS011;8065;49.520;11.284;2024-03-06T09:05:44;28.97;;;18.30;;
15931;SDS011;8065;49.520;11.284;2024-03-06T09:08:13;30.63;;;18.20;;
15931;SDS011;8065;49.520;11.284;2024-03-06T09:10:41;30.70;;;17.97;;
15931;SDS011;8065;49.520;11.284;2024-03-06T09:13:09;27.63;;;17.00;;
15931;SDS011;8065;49.520;11.284;2024-03-06T09:15:38;31.73;;;19.03;;
15931;SDS011;8065;49.520;11.284;2024-03-06T09:18:08;33.17;;;19.73;;
15931;SDS011;8065;49.520;11.284;2024-03-06T09:20:37;27.50;;;18.00;;
15931;SDS011;8065;49.520;11.284;2024-03-06T09:23:05;31.07;;;19.50;;
15931;SDS011;8065;49.520;11.284;2024-03-06T09:25:33;30.17;;;18.93;;
15931;SDS011;8065;49.520;11.284;2024-03-06T09:28:02;33.97;;;19.90;;
15931;SDS011;8065;49.520;11.284;2024-03-06T09:30:33;30.90;;;18.80;;
15931;SDS011;8065;49.520;11.284;2024-03-06T09:33:02;31.00;;;19.00;;
15931;SDS011;8065;49.520;11.284;2024-03-06T09:35:33;29.07;;;18.43;;
15931;SDS011;8065;49.520;11.284;2024-03-06T09:38:01;31.50;;;19.47;;
15931;SDS011;8065;49.520;11.284;2024-03-06T09:40:29;36.53;;;21.97;;
15931;SDS011;8065;49.520;11.284;2024-03-06T09:42:58;31.43;;;19.03;;
15931;SDS011;8065;49.520;11.284;2024-03-06T09:45:27;31.73;;;19.23;;
15931;SDS011;8065;49.520;11.284;2024-03-06T09:47:56;31.67;;;19.40;;
15931;SDS011;8065;49.520;11.284;2024-03-06T09:50:24;34.53;;;19.63;;
15931;SDS011;8065;49.520;11.284;2024-03-06T09:52:56;31.20;;;18.73;;
15931;SDS011;8065;49.520;11.284;2024-03-06T09:55:26;30.83;;;18.60;;
15931;SDS011;8065;49.520;11.284;2024-03-06T09:57:55;28.87;;;18.13;;
15931;SDS011;8065;49.520;11.284;2024-03-06T10:00:24;30.00;;;18.40;;
15931;SDS011;8065;49.520;11.284;2024-03-06T10:02:56;30.87;;;18.60;;
15931;SDS011;8065;49.520;11.284;2024-03-06T10:05:25;26.30;;;16.67;;
15931;SDS011;8065;49.520;11.284;2024-03-06T10:07:58;26.50;;;16.63;;
15931;SDS011;8065;49.520;11.284;2024-03-06T10:10:27;26.77;;;17.37;;
15931;SDS011;8065;49.520;11.284;2024-03-06T10:12:55;31.57;;;18.67;;
15931;SDS011;8065;49.520;11.284;2024-03-06T10:15:25;25.20;;;16.40;;
15931;SDS011;8065;49.520;11.284;2024-03-06T10:20:41;24.20;;;15.77;;
15931;SDS011;8065;49.520;11.284;2024-03-06T10:23:14;25.67;;;15.87;;
15931;SDS011;8065;49.520;11.284;2024-03-06T10:25:43;23.87;;;15.37;;
15931;SDS011;8065;49.520;11.284;2024-03-06T10:28:12;24.40;;;15.13;;
15931;SDS011;8065;49.520;11.284;2024-03-06T10:30:41;24.70;;;14.73;;
15931;SDS011;8065;49.520;11.284;2024-03-06T10:33:11;26.17;;;15.27;;
15931;SDS011;8065;49.520;11.284;2024-03-06T10:35:40;21.10;;;13.57;;
15931;SDS011;8065;49.520;11.284;2024-03-06T10:38:09;20.67;;;13.50;;
15931;SDS011;8065;49.520;11.284;2024-03-06T10:40:42;19.77;;;12.67;;
15931;SDS011;8065;49.520;11.284;2024-03-06T10:43:11;20.93;;;13.07;;
15931;SDS011;8065;49.520;11.284;2024-03-06T10:45:41;21.77;;;13.67;;
15931;SDS011;8065;49.520;11.284;2024-03-06T10:48:15;20.57;;;13.10;;
15931;SDS011;8065;49.520;11.284;2024-03-06T10:50:44;21.17;;;13.77;;
15931;SDS011;8065;49.520;11.284;2024-03-06T10:53:14;21.97;;;13.97;;
15931;SDS011;8065;49.520;11.284;2024-03-06T10:55:46;21.70;;;14.77;;
15931;SDS011;8065;49.520;11.284;2024-03-06T10:58:16;21.10;;;14.13;;
15931;SDS011;8065;49.520;11.284;2024-03-06T11:00:46;20.47;;;14.73;;
15931;SDS011;8065;49.520;11.284;2024-03-06T11:03:16;26.27;;;16.13;;
15931;SDS011;8065;49.520;11.284;2024-03-06T11:05:45;25.07;;;15.30;;
15931;SDS011;8065;49.520;11.284;2024-03-06T11:08:16;23.40;;;14.10;;
15931;SDS011;8065;49.520;11.284;2024-03-06T11:10:47;21.63;;;14.03;;
15931;SDS011;8065;49.520;11.284;2024-03-06T11:13:21;22.10;;;14.00;;
15931;SDS011;8065;49.520;11.284;2024-03-06T11:15:51;22.83;;;14.63;;
15931;SDS011;8065;49.520;11.284;2024-03-06T11:27:02;26.13;;;16.00;;
15931;SDS011;8065;49.520;11.284;2024-03-06T11:32:35;22.90;;;14.43;;
15931;SDS011;8065;49.520;11.284;2024-03-06T11:35:04;23.40;;;14.37;;
15931;SDS011;8065;49.520;11.284;2024-03-06T11:37:34;23.30;;;14.13;;
15931;SDS011;8065;49.520;11.284;2024-03-06T11:40:04;22.17;;;14.17;;
15931;SDS011;8065;49.520;11.284;2024-03-06T11:42:36;24.60;;;14.67;;
15931;SDS011;8065;49.520;11.284;2024-03-06T11:47:58;23.37;;;14.17;;
15931;SDS011;8065;49.520;11.284;2024-03-06T11:50:27;23.13;;;13.37;;
15931;SDS011;8065;49.520;11.284;2024-03-06T11:52:56;20.20;;;12.87;;
15931;SDS011;8065;49.520;11.284;2024-03-06T11:55:25;19.53;;;12.70;;
15931;SDS011;8065;49.520;11.284;2024-03-06T11:57:56;17.80;;;11.63;;
15931;SDS011;8065;49.520;11.284;2024-03-06T12:00:24;18.77;;;12.77;;
15931;SDS011;8065;49.520;11.284;2024-03-06T12:02:53;18.53;;;12.00;;
15931;SDS011;8065;49.520;11.284;2024-03-06T12:05:22;17.73;;;12.13;;
15931;SDS011;8065;49.520;11.284;2024-03-06T12:07:52;20.30;;;13.27;;
15931;SDS011;8065;49.520;11.284;2024-03-06T12:10:21;16.43;;;11.30;;
15931;SDS011;8065;49.520;11.284;2024-03-06T12:12:49;17.67;;;12.07;;
15931;SDS011;8065;49.520;11.284;2024-03-06T12:15:20;18.87;;;12.80;;
15931;SDS011;8065;49.520;11.284;2024-03-06T12:17:50;19.27;;;12.97;;
15931;SDS011;8065;49.520;11.284;2024-03-06T12:20:20;19.00;;;12.63;;
15931;SDS011;8065;49.520;11.284;2024-03-06T12:22:48;18.80;;;12.50;;
15931;SDS011;8065;49.520;11.284;2024-03-06T12:25:18;18.40;;;12.37;;
15931;SDS011;8065;49.520;11.284;2024-03-06T12:27:47;17.27;;;12.27;;
15931;SDS011;8065;49.520;11.284;2024-03-06T12:30:16;21.10;;;12.70;;
15931;SDS011;8065;49.520;11.284;2024-03-06T12:32:55;19.63;;;13.23;;
15931;SDS011;8065;49.520;11.284;2024-03-06T12:35:24;18.03;;;11.80;;
15931;SDS011;8065;49.520;11.284;2024-03-06T12:37:53;19.93;;;13.03;;
15931;SDS011;8065;49.520;11.284;2024-03-06T12:40:21;18.20;;;12.13;;
15931;SDS011;8065;49.520;11.284;2024-03-06T12:42:50;19.37;;;12.77;;
15931;SDS011;8065;49.520;11.284;2024-03-06T12:45:18;19.60;;;13.30;;
15931;SDS011;8065;49.520;11.284;2024-03-06T12:47:47;19.37;;;12.07;;
15931;SDS011;8065;49.520;11.284;2024-03-06T12:50:18;21.17;;;13.23;;
15931;SDS011;8065;49.520;11.284;2024-03-06T12:52:46;19.00;;;12.30;;
15931;SDS011;8065;49.520;11.284;2024-03-06T12:55:14;20.20;;;12.93;;
15931;SDS011;8065;49.520;11.284;2024-03-06T12:57:44;18.53;;;12.20;;
15931;SDS011;8065;49.520;11.284;2024-03-06T13:00:15;20.03;;;12.70;;
15931;SDS011;8065;49.520;11.284;2024-03-06T13:02:43;19.67;;;13.47;;
15931;SDS011;8065;49.520;11.284;2024-03-06T13:05:12;20.70;;;13.67;;
15931;SDS011;8065;49.520;11.284;2024-03-06T13:07:44;21.70;;;13.63;;
15931;SDS011;8065;49.520;11.284;2024-03-06T13:10:13;20.47;;;13.10;;
15931;SDS011;8065;49.520;11.284;2024-03-06T13:12:42;18.33;;;12.67;;
15931;SDS011;8065;49.520;11.284;2024-03-06T13:15:10;19.87;;;12.90;;
15931;SDS011;8065;49.520;11.284;2024-03-06T13:17:38;18.03;;;12.87;;
15931;SDS011;8065;49.520;11.284;2024-03-06T13:20:07;20.87;;;13.70;;
15931;SDS011;8065;49.520;11.284;2024-03-06T13:22:37;17.60;;;12.10;;
15931;SDS011;8065;49.520;11.284;2024-03-06T13:25:08;21.67;;;13.07;;
15931;SDS011;8065;49.520;11.284;2024-03-06T13:27:36;20.73;;;13.40;;
15931;SDS011;8065;49.520;11.284;2024-03-06T13:30:05;20.73;;;12.63;;
15931;SDS011;8065;49.520;11.284;2024-03-06T13:32:34;18.70;;;12.77;;
15931;SDS011;8065;49.520;11.284;2024-03-06T13:35:03;18.13;;;12.80;;
15931;SDS011;8065;49.520;11.284;2024-03-06T13:37:37;19.83;;;13.43;;
15931;SDS011;8065;49.520;11.284;2024-03-06T13:40:08;18.33;;;12.17;;
15931;SDS011;8065;49.520;11.284;2024-03-06T13:42:38;19.00;;;12.90;;
15931;SDS011;8065;49.520;11.284;2024-03-06T13:45:07;18.57;;;13.07;;
15931;SDS011;8065;49.520;11.284;2024-03-06T13:47:36;19.10;;;13.27;;
15931;SDS011;8065;49.520;11.284;2024-03-06T13:50:03;18.77;;;12.57;;
15931;SDS011;8065;49.520;11.284;2024-03-06T13:52:33;17.83;;;12.27;;
15931;SDS011;8065;49.520;11.284;2024-03-06T13:55:02;18.03;;;12.70;;
15931;SDS011;8065;49.520;11.284;2024-03-06T13:57:35;17.67;;;13.00;;
15931;SDS011;8065;49.520;11.284;2024-03-06T14:00:05;19.37;;;12.53;;
15931;SDS011;8065;49.520;11.284;2024-03-06T14:02:37;19.73;;;13.27;;
15931;SDS011;8065;49.520;11.284;2024-03-06T14:05:06;19.33;;;12.97;;
15931;SDS011;8065;49.520;11.284;2024-03-06T14:07:35;22.40;;;15.40;;
15931;SDS011;8065;49.520;11.284;2024-03-06T14:10:03;28.87;;;19.63;;
15931;SDS011;8065;49.520;11.284;2024-03-06T14:12:36;21.33;;;12.93;;
15931;SDS011;8065;49.520;11.284;2024-03-06T14:15:05;18.97;;;12.77;;
15931;SDS011;8065;49.520;11.284;2024-03-06T14:17:37;17.83;;;12.20;;
15931;SDS011;8065;49.520;11.284;2024-03-06T14:20:06;19.93;;;12.50;;
15931;SDS011;8065;49.520;11.284;2024-03-06T14:22:37;18.27;;;12.53;;
15931;SDS011;8065;49.520;11.284;2024-03-06T14:25:06;18.23;;;12.40;;
15931;SDS011;8065;49.520;11.284;2024-03-06T14:27:37;16.87;;;11.33;;
15931;SDS011;8065;49.520;11.284;2024-03-06T14:30:05;19.33;;;11.60;;
15931;SDS011;8065;49.520;11.284;2024-03-06T14:32:36;20.53;;;12.13;;
15931;SDS011;8065;49.520;11.284;2024-03-06T14:35:05;16.33;;;11.70;;
15931;SDS011;8065;49.520;11.284;2024-03-06T14:37:34;16.37;;;11.47;;
15931;SDS011;8065;49.520;11.284;2024-03-06T14:40:04;15.47;;;11.50;;
15931;SDS011;8065;49.520;11.284;2024-03-06T14:42:33;16.73;;;10.97;;
15931;SDS011;8065;49.520;11.284;2024-03-06T14:45:04;15.93;;;11.53;;
15931;SDS011;8065;49.520;11.284;2024-03-06T14:47:35;14.43;;;10.23;;
15931;SDS011;8065;49.520;11.284;2024-03-06T14:50:04;15.30;;;10.60;;